sensor_id;sensor_type;location;lat;lon;timestamp;temperature;humidity
72936;DHT22;61085;48.804;9.228;2023-02-18T00:00:24;13.50;99.90
72936;DHT22;61085;48.804;9.228;2023-02-18T00:03:10;13.50;99.90
72936;DHT22;61085;48.804;9.228;2023-02-18T00:05:56;13.40;99.90
72936;DHT22;61085;48.804;9.228;2023-02-18T00:08:43;13.40;99.90
72936;DHT22;61085;48.804;9.228;2023-02-18T00:11:31;13.50;99.90
72936;DHT22;61085;48.804;9.228;2023-02-18T00:14:17;13.40;99.90
72936;DHT22;61085;48.804;9.228;2023-02-18T00:17:03;13.50;99.90
72936;DHT22;61085;48.804;9.228;2023-02-18T00:19:49;13.50;99.90
72936;DHT22;61085;48.804;9.228;2023-02-18T00:22:35;13.40;99.90
72936;DHT22;61085;48.804;9.228;2023-02-18T00:25:21;13.40;99.90
72936;DHT22;61085;48.804;9.228;2023-02-18T00:28:06;13.40;99.90
72936;DHT22;61085;48.804;9.228;2023-02-18T00:30:52;13.40;99.90
72936;DHT22;61085;48.804;9.228;2023-02-18T00:33:39;13.40;99.90
72936;DHT22;61085;48.804;9.228;2023-02-18T00:36:26;13.30;99.90
72936;DHT22;61085;48.804;9.228;2023-02-18T00:39:12;13.30;99.90
72936;DHT22;61085;48.804;9.228;2023-02-18T00:41:58;13.30;99.90
72936;DHT22;61085;48.804;9.228;2023-02-18T00:44:44;13.40;99.90
72936;DHT22;61085;48.804;9.228;2023-02-18T00:47:30;13.30;99.90
72936;DHT22;61085;48.804;9.228;2023-02-18T00:50:16;13.40;99.90
72936;DHT22;61085;48.804;9.228;2023-02-18T00:53:02;13.40;99.90
72936;DHT22;61085;48.804;9.228;2023-02-18T00:55:47;13.30;99.90
72936;DHT22;61085;48.804;9.228;2023-02-18T00:58:34;13.20;99.90
72936;DHT22;61085;48.804;9.228;2023-02-18T01:01:21;13.30;99.90
72936;DHT22;61085;48.804;9.228;2023-02-18T01:04:07;13.40;99.90
72936;DHT22;61085;48.804;9.228;2023-02-18T01:06:53;13.30;99.90
72936;DHT22;61085;48.804;9.228;2023-02-18T01:09:39;13.40;99.90
72936;DHT22;61085;48.804;9.228;2023-02-18T01:12:25;13.30;99.90
72936;DHT22;61085;48.804;9.228;2023-02-18T01:15:13;13.30;99.90
72936;DHT22;61085;48.804;9.228;2023-02-18T01:17:59;13.40;99.90
72936;DHT22;61085;48.804;9.228;2023-02-18T01:20:45;13.30;99.90
72936;DHT22;61085;48.804;9.228;2023-02-18T01:23:31;13.40;99.90
72936;DHT22;61085;48.804;9.228;2023-02-18T01:26:17;13.40;99.90
72936;DHT22;61085;48.804;9.228;2023-02-18T01:29:03;13.30;99.90
72936;DHT22;61085;48.804;9.228;2023-02-18T01:31:49;13.30;99.90
72936;DHT22;61085;48.804;9.228;2023-02-18T01:34:35;13.30;99.90
72936;DHT22;61085;48.804;9.228;2023-02-18T01:37:21;13.30;99.90
72936;DHT22;61085;48.804;9.228;2023-02-18T01:40:10;13.30;99.90
72936;DHT22;61085;48.804;9.228;2023-02-18T01:42:56;13.30;99.90
72936;DHT22;61085;48.804;9.228;2023-02-18T01:51:43;13.20;99.90
72936;DHT22;61085;48.804;9.228;2023-02-18T01:54:36;13.20;99.90
72936;DHT22;61085;48.804;9.228;2023-02-18T01:57:33;13.20;99.90
72936;DHT22;61085;48.804;9.228;2023-02-18T02:00:20;13.30;99.90
72936;DHT22;61085;48.804;9.228;2023-02-18T02:03:09;13.30;99.90
72936;DHT22;61085;48.804;9.228;2023-02-18T02:05:54;13.20;99.90
72936;DHT22;61085;48.804;9.228;2023-02-18T02:08:40;13.20;99.90
72936;DHT22;61085;48.804;9.228;2023-02-18T02:30:16;13.10;99.90
72936;DHT22;61085;48.804;9.228;2023-02-18T02:45:54;13.20;99.90
72936;DHT22;61085;48.804;9.228;2023-02-18T02:48:59;13.20;99.90
72936;DHT22;61085;48.804;9.228;2023-02-18T02:52:07;13.30;99.90
72936;DHT22;61085;48.804;9.228;2023-02-18T02:54:54;13.20;99.90
72936;DHT22;61085;48.804;9.228;2023-02-18T02:57:50;13.10;99.90
72936;DHT22;61085;48.804;9.228;2023-02-18T03:04:27;13.20;99.90
72936;DHT22;61085;48.804;9.228;2023-02-18T03:10:50;13.10;99.90
72936;DHT22;61085;48.804;9.228;2023-02-18T03:13:44;13.10;99.90
72936;DHT22;61085;48.804;9.228;2023-02-18T03:16:45;13.10;99.90
72936;DHT22;61085;48.804;9.228;2023-02-18T03:19:37;13.10;99.90
72936;DHT22;61085;48.804;9.228;2023-02-18T03:22:33;13.10;99.90
72936;DHT22;61085;48.804;9.228;2023-02-18T03:25:22;13.10;99.90
72936;DHT22;61085;48.804;9.228;2023-02-18T03:28:15;13.00;99.90
72936;DHT22;61085;48.804;9.228;2023-02-18T03:31:06;13.20;99.90
72936;DHT22;61085;48.804;9.228;2023-02-18T03:34:01;13.20;99.90
72936;DHT22;61085;48.804;9.228;2023-02-18T03:36:48;13.20;99.90
72936;DHT22;61085;48.804;9.228;2023-02-18T03:39:35;13.20;99.90
72936;DHT22;61085;48.804;9.228;2023-02-18T03:42:28;13.10;99.90
72936;DHT22;61085;48.804;9.228;2023-02-18T03:45:14;13.10;99.90
72936;DHT22;61085;48.804;9.228;2023-02-18T03:48:00;13.20;99.90
72936;DHT22;61085;48.804;9.228;2023-02-18T03:50:46;13.00;99.90
72936;DHT22;61085;48.804;9.228;2023-02-18T03:53:32;13.10;99.90
72936;DHT22;61085;48.804;9.228;2023-02-18T03:56:18;13.00;99.90
72936;DHT22;61085;48.804;9.228;2023-02-18T03:59:04;12.90;99.90
72936;DHT22;61085;48.804;9.228;2023-02-18T04:01:50;12.90;99.90
72936;DHT22;61085;48.804;9.228;2023-02-18T04:04:36;12.90;99.90
72936;DHT22;61085;48.804;9.228;2023-02-18T04:07:22;12.80;99.90
72936;DHT22;61085;48.804;9.228;2023-02-18T04:10:08;12.80;99.90
72936;DHT22;61085;48.804;9.228;2023-02-18T04:12:54;12.70;99.90
72936;DHT22;61085;48.804;9.228;2023-02-18T04:15:40;12.80;99.90
72936;DHT22;61085;48.804;9.228;2023-02-18T04:18:26;12.80;99.90
72936;DHT22;61085;48.804;9.228;2023-02-18T04:21:11;12.70;99.90
72936;DHT22;61085;48.804;9.228;2023-02-18T04:23:58;12.80;99.90
72936;DHT22;61085;48.804;9.228;2023-02-18T04:26:44;12.70;99.90
72936;DHT22;61085;48.804;9.228;2023-02-18T04:29:30;12.70;99.90
72936;DHT22;61085;48.804;9.228;2023-02-18T04:32:15;12.70;99.90
72936;DHT22;61085;48.804;9.228;2023-02-18T04:35:02;12.70;99.90
72936;DHT22;61085;48.804;9.228;2023-02-18T04:37:48;12.70;99.90
72936;DHT22;61085;48.804;9.228;2023-02-18T04:40:34;12.60;99.90
72936;DHT22;61085;48.804;9.228;2023-02-18T04:43:20;12.60;99.90
72936;DHT22;61085;48.804;9.228;2023-02-18T04:46:06;12.50;99.90
72936;DHT22;61085;48.804;9.228;2023-02-18T04:48:52;12.50;99.90
72936;DHT22;61085;48.804;9.228;2023-02-18T04:51:38;12.50;99.90
72936;DHT22;61085;48.804;9.228;2023-02-18T04:54:24;12.40;99.90
72936;DHT22;61085;48.804;9.228;2023-02-18T04:57:10;12.40;99.90
72936;DHT22;61085;48.804;9.228;2023-02-18T04:59:56;12.40;99.90
72936;DHT22;61085;48.804;9.228;2023-02-18T05:02:42;12.40;99.90
72936;DHT22;61085;48.804;9.228;2023-02-18T05:05:28;12.40;99.90
72936;DHT22;61085;48.804;9.228;2023-02-18T05:08:14;12.30;99.90
72936;DHT22;61085;48.804;9.228;2023-02-18T05:11:05;12.30;99.90
72936;DHT22;61085;48.804;9.228;2023-02-18T05:13:51;12.30;99.90
72936;DHT22;61085;48.804;9.228;2023-02-18T05:16:37;12.20;99.90
72936;DHT22;61085;48.804;9.228;2023-02-18T05:19:23;12.20;99.90
72936;DHT22;61085;48.804;9.228;2023-02-18T05:22:09;12.30;99.90
72936;DHT22;61085;48.804;9.228;2023-02-18T05:24:55;12.20;99.90
72936;DHT22;61085;48.804;9.228;2023-02-18T05:27:41;12.10;99.90
72936;DHT22;61085;48.804;9.228;2023-02-18T05:30:27;12.50;99.90
72936;DHT22;61085;48.804;9.228;2023-02-18T05:33:13;12.30;99.90
72936;DHT22;61085;48.804;9.228;2023-02-18T05:35:59;12.20;99.90
72936;DHT22;61085;48.804;9.228;2023-02-18T05:38:45;12.30;99.90
72936;DHT22;61085;48.804;9.228;2023-02-18T05:41:31;12.20;99.90
72936;DHT22;61085;48.804;9.228;2023-02-18T05:44:17;12.20;99.90
72936;DHT22;61085;48.804;9.228;2023-02-18T05:47:15;12.10;99.90
72936;DHT22;61085;48.804;9.228;2023-02-18T05:50:01;12.10;99.90
72936;DHT22;61085;48.804;9.228;2023-02-18T05:52:47;12.10;99.90
72936;DHT22;61085;48.804;9.228;2023-02-18T05:55:33;12.10;99.90
72936;DHT22;61085;48.804;9.228;2023-02-18T05:58:23;12.00;99.90
72936;DHT22;61085;48.804;9.228;2023-02-18T06:01:09;12.00;99.90
72936;DHT22;61085;48.804;9.228;2023-02-18T06:03:55;12.00;99.90
72936;DHT22;61085;48.804;9.228;2023-02-18T06:06:41;12.00;99.90
72936;DHT22;61085;48.804;9.228;2023-02-18T06:09:27;12.00;99.90
72936;DHT22;61085;48.804;9.228;2023-02-18T06:12:13;12.00;99.90
72936;DHT22;61085;48.804;9.228;2023-02-18T06:14:59;12.00;99.90
72936;DHT22;61085;48.804;9.228;2023-02-18T06:17:45;12.00;99.90
72936;DHT22;61085;48.804;9.228;2023-02-18T06:20:31;12.00;99.90
72936;DHT22;61085;48.804;9.228;2023-02-18T06:23:17;12.10;99.90
72936;DHT22;61085;48.804;9.228;2023-02-18T06:26:03;12.10;99.90
72936;DHT22;61085;48.804;9.228;2023-02-18T06:28:49;12.20;99.90
72936;DHT22;61085;48.804;9.228;2023-02-18T06:31:35;12.20;99.90
72936;DHT22;61085;48.804;9.228;2023-02-18T06:34:21;12.20;99.90
72936;DHT22;61085;48.804;9.228;2023-02-18T06:37:07;12.10;99.90
72936;DHT22;61085;48.804;9.228;2023-02-18T06:39:53;12.20;99.90
72936;DHT22;61085;48.804;9.228;2023-02-18T06:42:38;12.20;99.90
72936;DHT22;61085;48.804;9.228;2023-02-18T06:45:24;12.10;99.90
72936;DHT22;61085;48.804;9.228;2023-02-18T06:48:11;12.30;99.90
72936;DHT22;61085;48.804;9.228;2023-02-18T06:50:57;12.20;99.90
72936;DHT22;61085;48.804;9.228;2023-02-18T06:53:43;12.30;99.90
72936;DHT22;61085;48.804;9.228;2023-02-18T06:56:29;12.30;99.90
72936;DHT22;61085;48.804;9.228;2023-02-18T06:59:15;12.30;99.90
72936;DHT22;61085;48.804;9.228;2023-02-18T07:02:01;12.40;99.90
72936;DHT22;61085;48.804;9.228;2023-02-18T07:04:47;12.60;99.90
72936;DHT22;61085;48.804;9.228;2023-02-18T07:07:33;12.40;99.90
72936;DHT22;61085;48.804;9.228;2023-02-18T07:10:20;12.40;99.90
72936;DHT22;61085;48.804;9.228;2023-02-18T07:13:05;12.40;99.90
72936;DHT22;61085;48.804;9.228;2023-02-18T07:15:51;12.60;99.90
72936;DHT22;61085;48.804;9.228;2023-02-18T07:18:37;12.60;99.90
72936;DHT22;61085;48.804;9.228;2023-02-18T07:21:23;12.50;99.90
72936;DHT22;61085;48.804;9.228;2023-02-18T07:24:12;12.50;99.90
72936;DHT22;61085;48.804;9.228;2023-02-18T07:26:58;12.50;99.90
72936;DHT22;61085;48.804;9.228;2023-02-18T07:29:44;12.50;99.90
72936;DHT22;61085;48.804;9.228;2023-02-18T07:32:30;12.50;99.90
72936;DHT22;61085;48.804;9.228;2023-02-18T07:35:16;12.60;99.90
72936;DHT22;61085;48.804;9.228;2023-02-18T07:38:03;12.60;99.90
72936;DHT22;61085;48.804;9.228;2023-02-18T07:40:49;12.70;99.90
72936;DHT22;61085;48.804;9.228;2023-02-18T07:43:35;12.70;99.90
72936;DHT22;61085;48.804;9.228;2023-02-18T07:46:21;12.70;99.90
72936;DHT22;61085;48.804;9.228;2023-02-18T07:49:07;12.70;99.90
72936;DHT22;61085;48.804;9.228;2023-02-18T07:51:53;12.70;99.90
72936;DHT22;61085;48.804;9.228;2023-02-18T07:54:39;12.90;99.90
72936;DHT22;61085;48.804;9.228;2023-02-18T07:57:25;12.90;99.90
72936;DHT22;61085;48.804;9.228;2023-02-18T08:00:12;13.00;99.90
72936;DHT22;61085;48.804;9.228;2023-02-18T08:02:58;13.10;99.90
72936;DHT22;61085;48.804;9.228;2023-02-18T08:05:44;13.10;99.90
72936;DHT22;61085;48.804;9.228;2023-02-18T08:08:31;13.30;99.90
72936;DHT22;61085;48.804;9.228;2023-02-18T08:11:17;13.40;99.90
72936;DHT22;61085;48.804;9.228;2023-02-18T08:14:03;13.40;99.90
72936;DHT22;61085;48.804;9.228;2023-02-18T08:16:49;13.40;99.90
72936;DHT22;61085;48.804;9.228;2023-02-18T08:19:35;13.40;99.90
72936;DHT22;61085;48.804;9.228;2023-02-18T08:22:21;13.50;99.90
72936;DHT22;61085;48.804;9.228;2023-02-18T08:25:07;13.50;99.90
72936;DHT22;61085;48.804;9.228;2023-02-18T08:27:53;13.60;99.90
72936;DHT22;61085;48.804;9.228;2023-02-18T08:30:44;13.60;99.90
72936;DHT22;61085;48.804;9.228;2023-02-18T08:33:30;13.80;99.90
72936;DHT22;61085;48.804;9.228;2023-02-18T08:36:16;13.90;99.90
72936;DHT22;61085;48.804;9.228;2023-02-18T08:39:03;14.00;99.90
72936;DHT22;61085;48.804;9.228;2023-02-18T08:41:49;14.00;99.90
72936;DHT22;61085;48.804;9.228;2023-02-18T08:44:35;14.00;99.90
72936;DHT22;61085;48.804;9.228;2023-02-18T08:47:24;14.10;99.90
72936;DHT22;61085;48.804;9.228;2023-02-18T08:50:10;14.10;99.90
72936;DHT22;61085;48.804;9.228;2023-02-18T08:53:10;14.20;99.90
72936;DHT22;61085;48.804;9.228;2023-02-18T08:55:56;14.30;99.90
72936;DHT22;61085;48.804;9.228;2023-02-18T08:58:42;14.40;99.90
72936;DHT22;61085;48.804;9.228;2023-02-18T09:01:28;14.50;99.90
72936;DHT22;61085;48.804;9.228;2023-02-18T09:04:14;14.60;99.90
72936;DHT22;61085;48.804;9.228;2023-02-18T09:07:00;14.60;99.90
72936;DHT22;61085;48.804;9.228;2023-02-18T09:09:47;14.70;99.90
72936;DHT22;61085;48.804;9.228;2023-02-18T09:12:33;14.80;99.80
72936;DHT22;61085;48.804;9.228;2023-02-18T09:15:19;14.80;99.40
72936;DHT22;61085;48.804;9.228;2023-02-18T09:18:05;14.90;99.60
72936;DHT22;61085;48.804;9.228;2023-02-18T09:20:51;15.10;97.90
72936;DHT22;61085;48.804;9.228;2023-02-18T09:23:36;15.30;97.80
72936;DHT22;61085;48.804;9.228;2023-02-18T09:26:23;15.50;96.40
72936;DHT22;61085;48.804;9.228;2023-02-18T09:29:09;15.60;95.80
72936;DHT22;61085;48.804;9.228;2023-02-18T09:31:59;15.50;94.60
72936;DHT22;61085;48.804;9.228;2023-02-18T09:34:45;15.60;95.30
72936;DHT22;61085;48.804;9.228;2023-02-18T09:37:31;15.60;95.10
72936;DHT22;61085;48.804;9.228;2023-02-18T09:40:25;15.70;94.90
72936;DHT22;61085;48.804;9.228;2023-02-18T09:46:22;15.70;94.70
72936;DHT22;61085;48.804;9.228;2023-02-18T09:49:27;15.70;94.70
72936;DHT22;61085;48.804;9.228;2023-02-18T09:52:31;15.70;94.70
72936;DHT22;61085;48.804;9.228;2023-02-18T09:55:31;15.80;93.90
72936;DHT22;61085;48.804;9.228;2023-02-18T09:58:29;15.70;93.90
72936;DHT22;61085;48.804;9.228;2023-02-18T10:01:46;15.60;94.40
72936;DHT22;61085;48.804;9.228;2023-02-18T10:04:39;15.70;94.60
72936;DHT22;61085;48.804;9.228;2023-02-18T10:07:30;15.80;94.30
72936;DHT22;61085;48.804;9.228;2023-02-18T10:13:14;15.80;93.90
72936;DHT22;61085;48.804;9.228;2023-02-18T10:16:01;16.00;94.70
72936;DHT22;61085;48.804;9.228;2023-02-18T10:18:50;15.70;94.40
72936;DHT22;61085;48.804;9.228;2023-02-18T10:21:38;15.70;94.20
72936;DHT22;61085;48.804;9.228;2023-02-18T10:27:34;15.50;94.90
72936;DHT22;61085;48.804;9.228;2023-02-18T10:36:43;15.60;95.50
72936;DHT22;61085;48.804;9.228;2023-02-18T10:46:19;15.50;94.80
72936;DHT22;61085;48.804;9.228;2023-02-18T10:52:33;15.40;94.30
72936;DHT22;61085;48.804;9.228;2023-02-18T10:55:40;15.30;95.20
72936;DHT22;61085;48.804;9.228;2023-02-18T11:01:19;15.60;93.70
72936;DHT22;61085;48.804;9.228;2023-02-18T11:04:17;15.50;93.40
72936;DHT22;61085;48.804;9.228;2023-02-18T11:07:14;15.50;94.20
72936;DHT22;61085;48.804;9.228;2023-02-18T11:10:14;15.60;93.00
72936;DHT22;61085;48.804;9.228;2023-02-18T11:13:02;15.60;92.80
72936;DHT22;61085;48.804;9.228;2023-02-18T11:18:44;15.60;92.70
72936;DHT22;61085;48.804;9.228;2023-02-18T11:21:35;15.50;93.40
72936;DHT22;61085;48.804;9.228;2023-02-18T11:24:21;15.80;92.60
72936;DHT22;61085;48.804;9.228;2023-02-18T11:27:16;15.80;92.70
72936;DHT22;61085;48.804;9.228;2023-02-18T11:30:06;15.90;92.00
72936;DHT22;61085;48.804;9.228;2023-02-18T11:33:05;15.80;91.20
72936;DHT22;61085;48.804;9.228;2023-02-18T11:35:54;15.80;91.10
72936;DHT22;61085;48.804;9.228;2023-02-18T11:38:47;15.80;90.20
72936;DHT22;61085;48.804;9.228;2023-02-18T11:41:34;15.90;91.10
72936;DHT22;61085;48.804;9.228;2023-02-18T11:44:31;15.90;90.50
72936;DHT22;61085;48.804;9.228;2023-02-18T11:47:33;16.00;89.40
72936;DHT22;61085;48.804;9.228;2023-02-18T11:50:22;16.00;87.90
72936;DHT22;61085;48.804;9.228;2023-02-18T11:53:28;15.90;88.30
72936;DHT22;61085;48.804;9.228;2023-02-18T11:56:16;15.80;87.40
72936;DHT22;61085;48.804;9.228;2023-02-18T11:59:03;15.90;87.20
72936;DHT22;61085;48.804;9.228;2023-02-18T12:01:59;15.90;87.90
72936;DHT22;61085;48.804;9.228;2023-02-18T12:05:04;15.90;86.90
72936;DHT22;61085;48.804;9.228;2023-02-18T12:08:19;15.80;87.60
72936;DHT22;61085;48.804;9.228;2023-02-18T12:11:13;15.80;86.80
72936;DHT22;61085;48.804;9.228;2023-02-18T12:14:00;15.70;88.40
72936;DHT22;61085;48.804;9.228;2023-02-18T12:16:54;15.70;87.30
72936;DHT22;61085;48.804;9.228;2023-02-18T12:23:37;15.70;87.80
72936;DHT22;61085;48.804;9.228;2023-02-18T12:26:19;15.70;89.50
72936;DHT22;61085;48.804;9.228;2023-02-18T12:30:00;15.80;88.40
72936;DHT22;61085;48.804;9.228;2023-02-18T12:45:21;15.90;84.10
72936;DHT22;61085;48.804;9.228;2023-02-18T12:58:01;15.90;83.70
72936;DHT22;61085;48.804;9.228;2023-02-18T13:10:27;15.90;83.50
72936;DHT22;61085;48.804;9.228;2023-02-18T13:13:23;15.80;83.40
72936;DHT22;61085;48.804;9.228;2023-02-18T13:16:15;15.80;83.50
72936;DHT22;61085;48.804;9.228;2023-02-18T13:19:26;15.90;83.80
72936;DHT22;61085;48.804;9.228;2023-02-18T13:22:14;15.90;85.30
72936;DHT22;61085;48.804;9.228;2023-02-18T13:25:01;15.80;84.20
72936;DHT22;61085;48.804;9.228;2023-02-18T13:28:03;15.80;85.10
72936;DHT22;61085;48.804;9.228;2023-02-18T13:31:14;15.90;84.40
72936;DHT22;61085;48.804;9.228;2023-02-18T13:34:16;15.90;83.30
72936;DHT22;61085;48.804;9.228;2023-02-18T13:37:10;15.80;84.00
72936;DHT22;61085;48.804;9.228;2023-02-18T13:39:59;15.90;84.40
72936;DHT22;61085;48.804;9.228;2023-02-18T13:42:53;15.90;84.80
72936;DHT22;61085;48.804;9.228;2023-02-18T13:45:39;15.80;83.90
72936;DHT22;61085;48.804;9.228;2023-02-18T13:48:26;15.80;84.40
72936;DHT22;61085;48.804;9.228;2023-02-18T13:54:31;15.70;83.80
72936;DHT22;61085;48.804;9.228;2023-02-18T13:57:25;15.80;84.50
72936;DHT22;61085;48.804;9.228;2023-02-18T14:00:22;15.90;82.40
72936;DHT22;61085;48.804;9.228;2023-02-18T14:06:26;16.00;80.60
72936;DHT22;61085;48.804;9.228;2023-02-18T14:23:59;16.30;77.50
72936;DHT22;61085;48.804;9.228;2023-02-18T14:26:47;16.10;77.50
72936;DHT22;61085;48.804;9.228;2023-02-18T14:29:33;16.10;78.50
72936;DHT22;61085;48.804;9.228;2023-02-18T14:32:20;16.20;78.30
72936;DHT22;61085;48.804;9.228;2023-02-18T14:41:47;16.30;79.10
72936;DHT22;61085;48.804;9.228;2023-02-18T14:50:36;16.40;79.60
72936;DHT22;61085;48.804;9.228;2023-02-18T14:53:24;16.40;78.70
72936;DHT22;61085;48.804;9.228;2023-02-18T14:56:14;16.40;79.50
72936;DHT22;61085;48.804;9.228;2023-02-18T14:59:02;16.30;79.90
72936;DHT22;61085;48.804;9.228;2023-02-18T15:01:49;16.30;80.90
72936;DHT22;61085;48.804;9.228;2023-02-18T15:04:38;16.30;81.60
72936;DHT22;61085;48.804;9.228;2023-02-18T15:07:23;16.10;81.60
72936;DHT22;61085;48.804;9.228;2023-02-18T15:10:14;16.10;82.60
72936;DHT22;61085;48.804;9.228;2023-02-18T15:13:02;16.00;83.10
72936;DHT22;61085;48.804;9.228;2023-02-18T15:15:52;16.00;84.00
72936;DHT22;61085;48.804;9.228;2023-02-18T15:18:44;15.90;84.00
72936;DHT22;61085;48.804;9.228;2023-02-18T15:21:40;15.80;84.30
72936;DHT22;61085;48.804;9.228;2023-02-18T15:24:36;15.70;85.10
72936;DHT22;61085;48.804;9.228;2023-02-18T15:27:27;15.60;86.00
72936;DHT22;61085;48.804;9.228;2023-02-18T15:30:25;15.60;86.70
72936;DHT22;61085;48.804;9.228;2023-02-18T15:33:20;15.50;87.50
72936;DHT22;61085;48.804;9.228;2023-02-18T15:36:12;15.50;88.90
72936;DHT22;61085;48.804;9.228;2023-02-18T15:38:58;15.50;89.60
72936;DHT22;61085;48.804;9.228;2023-02-18T15:41:45;15.40;89.30
72936;DHT22;61085;48.804;9.228;2023-02-18T15:44:35;15.30;90.10
72936;DHT22;61085;48.804;9.228;2023-02-18T15:47:22;15.20;90.60
72936;DHT22;61085;48.804;9.228;2023-02-18T15:50:30;15.20;91.00
72936;DHT22;61085;48.804;9.228;2023-02-18T15:53:17;15.20;91.10
72936;DHT22;61085;48.804;9.228;2023-02-18T15:56:09;15.10;91.60
72936;DHT22;61085;48.804;9.228;2023-02-18T15:59:09;15.10;91.60
72936;DHT22;61085;48.804;9.228;2023-02-18T16:02:19;15.10;91.50
72936;DHT22;61085;48.804;9.228;2023-02-18T16:05:12;15.00;92.30
72936;DHT22;61085;48.804;9.228;2023-02-18T16:08:06;15.00;92.60
72936;DHT22;61085;48.804;9.228;2023-02-18T16:11:08;14.90;92.60
72936;DHT22;61085;48.804;9.228;2023-02-18T16:13:55;14.90;92.80
72936;DHT22;61085;48.804;9.228;2023-02-18T16:16:41;14.90;92.70
72936;DHT22;61085;48.804;9.228;2023-02-18T16:19:27;14.80;93.10
72936;DHT22;61085;48.804;9.228;2023-02-18T16:25:26;14.90;93.40
72936;DHT22;61085;48.804;9.228;2023-02-18T16:28:25;14.80;93.60
72936;DHT22;61085;48.804;9.228;2023-02-18T16:31:14;14.80;94.00
72936;DHT22;61085;48.804;9.228;2023-02-18T16:34:01;14.70;94.10
72936;DHT22;61085;48.804;9.228;2023-02-18T16:36:47;14.70;94.20
72936;DHT22;61085;48.804;9.228;2023-02-18T16:39:52;14.70;94.20
72936;DHT22;61085;48.804;9.228;2023-02-18T16:42:39;14.60;94.90
72936;DHT22;61085;48.804;9.228;2023-02-18T16:45:32;14.60;94.70
72936;DHT22;61085;48.804;9.228;2023-02-18T16:48:34;14.60;94.80
72936;DHT22;61085;48.804;9.228;2023-02-18T16:51:33;14.50;95.00
72936;DHT22;61085;48.804;9.228;2023-02-18T16:54:19;14.60;95.20
72936;DHT22;61085;48.804;9.228;2023-02-18T16:57:05;14.60;95.30
72936;DHT22;61085;48.804;9.228;2023-02-18T16:59:51;14.50;95.20
72936;DHT22;61085;48.804;9.228;2023-02-18T17:02:37;14.60;95.30
72936;DHT22;61085;48.804;9.228;2023-02-18T17:05:26;14.50;95.40
72936;DHT22;61085;48.804;9.228;2023-02-18T17:08:24;14.50;95.60
72936;DHT22;61085;48.804;9.228;2023-02-18T17:14:05;14.50;95.80
72936;DHT22;61085;48.804;9.228;2023-02-18T17:16:52;14.50;95.80
72936;DHT22;61085;48.804;9.228;2023-02-18T17:19:38;14.50;95.70
72936;DHT22;61085;48.804;9.228;2023-02-18T17:22:24;14.50;95.80
72936;DHT22;61085;48.804;9.228;2023-02-18T17:25:18;14.40;96.10
72936;DHT22;61085;48.804;9.228;2023-02-18T17:28:05;14.40;96.20
72936;DHT22;61085;48.804;9.228;2023-02-18T17:30:55;14.40;96.50
72936;DHT22;61085;48.804;9.228;2023-02-18T17:33:42;14.40;96.60
72936;DHT22;61085;48.804;9.228;2023-02-18T17:36:29;14.30;97.00
72936;DHT22;61085;48.804;9.228;2023-02-18T17:39:16;14.40;97.00
72936;DHT22;61085;48.804;9.228;2023-02-18T17:42:02;14.40;97.10
72936;DHT22;61085;48.804;9.228;2023-02-18T17:44:48;14.40;97.30
72936;DHT22;61085;48.804;9.228;2023-02-18T17:47:34;14.40;97.40
72936;DHT22;61085;48.804;9.228;2023-02-18T17:50:20;14.40;97.70
72936;DHT22;61085;48.804;9.228;2023-02-18T17:58:39;14.30;97.70
72936;DHT22;61085;48.804;9.228;2023-02-18T18:01:24;14.50;98.60
72936;DHT22;61085;48.804;9.228;2023-02-18T18:04:13;14.30;98.30
72936;DHT22;61085;48.804;9.228;2023-02-18T18:06:59;14.20;98.80
72936;DHT22;61085;48.804;9.228;2023-02-18T18:09:45;14.20;98.70
72936;DHT22;61085;48.804;9.228;2023-02-18T18:12:31;14.20;99.10
72936;DHT22;61085;48.804;9.228;2023-02-18T18:15:22;14.20;99.20
72936;DHT22;61085;48.804;9.228;2023-02-18T18:18:10;14.20;99.50
72936;DHT22;61085;48.804;9.228;2023-02-18T18:20:58;14.20;99.80
72936;DHT22;61085;48.804;9.228;2023-02-18T18:23:44;14.20;99.80
72936;DHT22;61085;48.804;9.228;2023-02-18T18:26:30;14.10;99.90
72936;DHT22;61085;48.804;9.228;2023-02-18T18:29:16;14.10;99.90
72936;DHT22;61085;48.804;9.228;2023-02-18T18:32:02;14.10;99.90
72936;DHT22;61085;48.804;9.228;2023-02-18T18:34:48;14.10;99.90
72936;DHT22;61085;48.804;9.228;2023-02-18T18:37:34;14.10;99.90
72936;DHT22;61085;48.804;9.228;2023-02-18T18:40:22;14.10;99.90
72936;DHT22;61085;48.804;9.228;2023-02-18T18:43:22;14.00;99.90
72936;DHT22;61085;48.804;9.228;2023-02-18T18:46:08;13.90;99.90
72936;DHT22;61085;48.804;9.228;2023-02-18T18:48:54;13.90;99.90
72936;DHT22;61085;48.804;9.228;2023-02-18T18:51:40;13.90;99.90
72936;DHT22;61085;48.804;9.228;2023-02-18T18:54:26;13.90;99.90
72936;DHT22;61085;48.804;9.228;2023-02-18T18:57:12;14.00;99.90
72936;DHT22;61085;48.804;9.228;2023-02-18T18:59:58;13.90;99.90
72936;DHT22;61085;48.804;9.228;2023-02-18T19:02:44;14.00;99.90
72936;DHT22;61085;48.804;9.228;2023-02-18T19:05:34;13.80;99.90
72936;DHT22;61085;48.804;9.228;2023-02-18T19:08:21;13.90;99.90
72936;DHT22;61085;48.804;9.228;2023-02-18T19:11:10;14.00;99.90
72936;DHT22;61085;48.804;9.228;2023-02-18T19:13:57;13.70;99.90
72936;DHT22;61085;48.804;9.228;2023-02-18T19:16:43;13.80;99.90
72936;DHT22;61085;48.804;9.228;2023-02-18T19:19:30;13.80;99.90
72936;DHT22;61085;48.804;9.228;2023-02-18T19:22:16;13.60;99.90
72936;DHT22;61085;48.804;9.228;2023-02-18T19:25:02;13.60;99.90
72936;DHT22;61085;48.804;9.228;2023-02-18T19:27:49;13.70;99.90
72936;DHT22;61085;48.804;9.228;2023-02-18T19:30:36;13.60;99.90
72936;DHT22;61085;48.804;9.228;2023-02-18T19:33:21;13.50;99.90
72936;DHT22;61085;48.804;9.228;2023-02-18T19:36:09;13.50;99.90
72936;DHT22;61085;48.804;9.228;2023-02-18T19:38:56;13.60;99.90
72936;DHT22;61085;48.804;9.228;2023-02-18T19:41:41;13.70;99.90
72936;DHT22;61085;48.804;9.228;2023-02-18T19:44:32;13.40;99.90
72936;DHT22;61085;48.804;9.228;2023-02-18T19:47:18;13.50;99.90
72936;DHT22;61085;48.804;9.228;2023-02-18T19:50:05;13.50;99.90
72936;DHT22;61085;48.804;9.228;2023-02-18T19:52:53;13.40;99.90
72936;DHT22;61085;48.804;9.228;2023-02-18T19:55:39;13.50;99.90
72936;DHT22;61085;48.804;9.228;2023-02-18T19:58:25;13.30;99.90
72936;DHT22;61085;48.804;9.228;2023-02-18T20:01:13;13.30;99.90
72936;DHT22;61085;48.804;9.228;2023-02-18T20:03:59;13.30;99.90
72936;DHT22;61085;48.804;9.228;2023-02-18T20:06:45;13.10;99.90
72936;DHT22;61085;48.804;9.228;2023-02-18T20:09:31;13.10;99.90
72936;DHT22;61085;48.804;9.228;2023-02-18T20:12:17;13.00;99.90
72936;DHT22;61085;48.804;9.228;2023-02-18T20:15:03;12.90;99.90
72936;DHT22;61085;48.804;9.228;2023-02-18T20:17:49;12.80;99.90
72936;DHT22;61085;48.804;9.228;2023-02-18T20:20:35;12.80;99.90
72936;DHT22;61085;48.804;9.228;2023-02-18T20:23:21;12.90;99.90